sensor_id;sensor_type;location;lat;lon;timestamp;temperature;humidity
2054;DHT22;1032;52.542;13.440;2022-07-30T00:00:23;21.50;61.10
2054;DHT22;1032;52.542;13.440;2022-07-30T00:02:49;23.50;63.50
2054;DHT22;1032;52.542;13.440;2022-07-30T00:05:16;22.00;62.10
2054;DHT22;1032;52.542;13.440;2022-07-30T00:07:44;21.40;61.50
2054;DHT22;1032;52.542;13.440;2022-07-30T00:10:12;21.60;61.80
2054;DHT22;1032;52.542;13.440;2022-07-30T00:12:38;21.20;61.40
2054;DHT22;1032;52.542;13.440;2022-07-30T00:15:06;21.40;61.90
2054;DHT22;1032;52.542;13.440;2022-07-30T00:17:33;21.40;62.10
2054;DHT22;1032;52.542;13.440;2022-07-30T00:19:59;21.50;62.40
2054;DHT22;1032;52.542;13.440;2022-07-30T00:22:26;21.00;61.90
2054;DHT22;1032;52.542;13.440;2022-07-30T00:24:54;21.10;62.20
2054;DHT22;1032;52.542;13.440;2022-07-30T00:27:21;21.20;62.50
2054;DHT22;1032;52.542;13.440;2022-07-30T00:29:47;21.40;62.90
2054;DHT22;1032;52.542;13.440;2022-07-30T00:32:14;21.10;62.70
2054;DHT22;1032;52.542;13.440;2022-07-30T00:34:41;21.00;62.90
2054;DHT22;1032;52.542;13.440;2022-07-30T00:37:08;21.50;63.50
2054;DHT22;1032;52.542;13.440;2022-07-30T00:39:35;21.30;63.50
2054;DHT22;1032;52.542;13.440;2022-07-30T00:42:03;21.30;63.70
2054;DHT22;1032;52.542;13.440;2022-07-30T00:44:30;21.30;63.80
2054;DHT22;1032;52.542;13.440;2022-07-30T00:46:57;21.20;63.80
2054;DHT22;1032;52.542;13.440;2022-07-30T00:49:24;21.10;63.90
2054;DHT22;1032;52.542;13.440;2022-07-30T00:51:51;21.40;64.20
2054;DHT22;1032;52.542;13.440;2022-07-30T00:54:18;21.20;64.00
2054;DHT22;1032;52.542;13.440;2022-07-30T00:56:45;21.20;64.20
2054;DHT22;1032;52.542;13.440;2022-07-30T00:59:14;21.00;64.20
2054;DHT22;1032;52.542;13.440;2022-07-30T01:01:41;21.10;64.40
2054;DHT22;1032;52.542;13.440;2022-07-30T01:04:10;20.80;64.20
2054;DHT22;1032;52.542;13.440;2022-07-30T01:06:37;21.10;64.80
2054;DHT22;1032;52.542;13.440;2022-07-30T01:09:04;21.00;64.60
2054;DHT22;1032;52.542;13.440;2022-07-30T01:11:35;21.00;64.80
2054;DHT22;1032;52.542;13.440;2022-07-30T01:14:03;21.10;65.10
2054;DHT22;1032;52.542;13.440;2022-07-30T01:16:31;21.00;65.20
2054;DHT22;1032;52.542;13.440;2022-07-30T01:18:59;20.70;65.00
2054;DHT22;1032;52.542;13.440;2022-07-30T01:21:48;20.70;65.10
2054;DHT22;1032;52.542;13.440;2022-07-30T01:24:29;20.70;65.20
2054;DHT22;1032;52.542;13.440;2022-07-30T01:27:00;20.80;65.40
2054;DHT22;1032;52.542;13.440;2022-07-30T01:29:28;20.90;65.80
2054;DHT22;1032;52.542;13.440;2022-07-30T01:31:57;20.90;65.90
2054;DHT22;1032;52.542;13.440;2022-07-30T01:34:28;20.60;65.60
2054;DHT22;1032;52.542;13.440;2022-07-30T01:36:55;21.20;66.60
2054;DHT22;1032;52.542;13.440;2022-07-30T01:39:24;20.80;66.10
2054;DHT22;1032;52.542;13.440;2022-07-30T01:41:52;20.90;66.30
2054;DHT22;1032;52.542;13.440;2022-07-30T01:44:21;20.80;66.10
2054;DHT22;1032;52.542;13.440;2022-07-30T01:46:49;20.90;66.40
2054;DHT22;1032;52.542;13.440;2022-07-30T01:49:17;20.70;66.40
2054;DHT22;1032;52.542;13.440;2022-07-30T01:51:47;20.70;66.60
2054;DHT22;1032;52.542;13.440;2022-07-30T01:54:17;20.60;66.60
2054;DHT22;1032;52.542;13.440;2022-07-30T01:56:46;20.90;67.20
2054;DHT22;1032;52.542;13.440;2022-07-30T01:59:17;20.60;66.90
2054;DHT22;1032;52.542;13.440;2022-07-30T02:01:47;20.60;67.30
2054;DHT22;1032;52.542;13.440;2022-07-30T02:04:15;20.40;67.10
2054;DHT22;1032;52.542;13.440;2022-07-30T02:06:45;20.60;67.40
2054;DHT22;1032;52.542;13.440;2022-07-30T02:09:18;20.80;67.80
2054;DHT22;1032;52.542;13.440;2022-07-30T02:11:48;20.40;67.40
2054;DHT22;1032;52.542;13.440;2022-07-30T02:14:38;20.50;67.80
2054;DHT22;1032;52.542;13.440;2022-07-30T02:17:13;20.90;68.30
2054;DHT22;1032;52.542;13.440;2022-07-30T02:19:43;20.20;67.40
2054;DHT22;1032;52.542;13.440;2022-07-30T02:22:14;20.60;68.00
2054;DHT22;1032;52.542;13.440;2022-07-30T02:24:43;20.50;68.10
2054;DHT22;1032;52.542;13.440;2022-07-30T02:27:13;20.40;68.00
2054;DHT22;1032;52.542;13.440;2022-07-30T02:29:42;20.40;68.20
2054;DHT22;1032;52.542;13.440;2022-07-30T02:32:14;20.40;68.20
2054;DHT22;1032;52.542;13.440;2022-07-30T02:34:45;20.50;68.50
2054;DHT22;1032;52.542;13.440;2022-07-30T02:37:14;20.40;68.50
2054;DHT22;1032;52.542;13.440;2022-07-30T02:39:42;20.40;68.70
2054;DHT22;1032;52.542;13.440;2022-07-30T02:42:11;20.10;68.50
2054;DHT22;1032;52.542;13.440;2022-07-30T02:44:41;20.40;69.10
2054;DHT22;1032;52.542;13.440;2022-07-30T02:47:11;20.50;69.30
2054;DHT22;1032;52.542;13.440;2022-07-30T02:49:51;20.50;69.30
2054;DHT22;1032;52.542;13.440;2022-07-30T02:52:20;20.20;68.90
2054;DHT22;1032;52.542;13.440;2022-07-30T02:54:50;20.00;68.90
2054;DHT22;1032;52.542;13.440;2022-07-30T02:57:18;20.40;69.50
2054;DHT22;1032;52.542;13.440;2022-07-30T02:59:47;20.10;69.30
2054;DHT22;1032;52.542;13.440;2022-07-30T03:02:16;20.30;69.50
2054;DHT22;1032;52.542;13.440;2022-07-30T03:04:44;20.20;69.60
2054;DHT22;1032;52.542;13.440;2022-07-30T03:07:12;19.90;69.40
2054;DHT22;1032;52.542;13.440;2022-07-30T03:09:41;20.20;70.00
2054;DHT22;1032;52.542;13.440;2022-07-30T03:12:10;19.80;69.60
2054;DHT22;1032;52.542;13.440;2022-07-30T03:14:38;20.70;70.70
2054;DHT22;1032;52.542;13.440;2022-07-30T03:17:06;19.70;69.70
2054;DHT22;1032;52.542;13.440;2022-07-30T03:19:37;19.90;69.90
2054;DHT22;1032;52.542;13.440;2022-07-30T03:22:06;20.20;70.30
2054;DHT22;1032;52.542;13.440;2022-07-30T03:24:34;20.10;70.30
2054;DHT22;1032;52.542;13.440;2022-07-30T03:27:03;20.10;70.40
2054;DHT22;1032;52.542;13.440;2022-07-30T03:29:31;19.80;70.30
2054;DHT22;1032;52.542;13.440;2022-07-30T03:32:00;20.10;70.70
2054;DHT22;1032;52.542;13.440;2022-07-30T03:34:27;19.30;69.80
2054;DHT22;1032;52.542;13.440;2022-07-30T03:36:56;20.00;70.60
2054;DHT22;1032;52.542;13.440;2022-07-30T03:39:23;20.10;70.70
2054;DHT22;1032;52.542;13.440;2022-07-30T03:41:50;20.60;71.30
2054;DHT22;1032;52.542;13.440;2022-07-30T03:44:19;19.90;70.60
2054;DHT22;1032;52.542;13.440;2022-07-30T03:46:47;20.20;71.00
2054;DHT22;1032;52.542;13.440;2022-07-30T03:49:16;20.00;70.80
2054;DHT22;1032;52.542;13.440;2022-07-30T03:51:47;20.20;71.00
2054;DHT22;1032;52.542;13.440;2022-07-30T03:54:16;20.20;71.40
2054;DHT22;1032;52.542;13.440;2022-07-30T03:56:59;20.00;71.70
2054;DHT22;1032;52.542;13.440;2022-07-30T03:59:38;20.20;71.20
2054;DHT22;1032;52.542;13.440;2022-07-30T04:02:04;20.20;71.10
2054;DHT22;1032;52.542;13.440;2022-07-30T04:04:54;20.00;70.50
2054;DHT22;1032;52.542;13.440;2022-07-30T04:07:21;20.10;70.60
2054;DHT22;1032;52.542;13.440;2022-07-30T04:09:50;20.20;70.80
2054;DHT22;1032;52.542;13.440;2022-07-30T04:12:30;20.00;70.60
2054;DHT22;1032;52.542;13.440;2022-07-30T04:14:57;20.50;72.00
2054;DHT22;1032;52.542;13.440;2022-07-30T04:17:28;20.30;71.70
2054;DHT22;1032;52.542;13.440;2022-07-30T04:20:00;20.10;71.60
2054;DHT22;1032;52.542;13.440;2022-07-30T04:22:31;19.90;71.30
2054;DHT22;1032;52.542;13.440;2022-07-30T04:25:00;20.10;70.80
2054;DHT22;1032;52.542;13.440;2022-07-30T04:27:28;20.10;70.80
2054;DHT22;1032;52.542;13.440;2022-07-30T04:29:56;20.10;70.70
2054;DHT22;1032;52.542;13.440;2022-07-30T04:32:23;20.10;70.70
2054;DHT22;1032;52.542;13.440;2022-07-30T04:35:28;20.10;70.70
2054;DHT22;1032;52.542;13.440;2022-07-30T04:38:08;20.60;72.00
2054;DHT22;1032;52.542;13.440;2022-07-30T04:40:37;20.20;71.50
2054;DHT22;1032;52.542;13.440;2022-07-30T04:43:03;20.20;70.90
2054;DHT22;1032;52.542;13.440;2022-07-30T04:45:32;20.00;71.20
2054;DHT22;1032;52.542;13.440;2022-07-30T04:48:01;20.50;71.80
2054;DHT22;1032;52.542;13.440;2022-07-30T04:50:46;20.30;71.50
2054;DHT22;1032;52.542;13.440;2022-07-30T04:53:16;20.30;71.50
2054;DHT22;1032;52.542;13.440;2022-07-30T04:55:50;20.50;71.90
2054;DHT22;1032;52.542;13.440;2022-07-30T04:58:19;20.10;71.40
2054;DHT22;1032;52.542;13.440;2022-07-30T05:00:49;20.30;71.60
2054;DHT22;1032;52.542;13.440;2022-07-30T05:03:22;20.60;71.20
2054;DHT22;1032;52.542;13.440;2022-07-30T05:05:52;20.10;71.30
2054;DHT22;1032;52.542;13.440;2022-07-30T05:10:47;20.40;70.90
2054;DHT22;1032;52.542;13.440;2022-07-30T05:13:15;20.40;71.60
2054;DHT22;1032;52.542;13.440;2022-07-30T05:15:42;20.40;71.60
2054;DHT22;1032;52.542;13.440;2022-07-30T05:18:11;20.50;71.60
2054;DHT22;1032;52.542;13.440;2022-07-30T05:20:40;20.10;71.20
2054;DHT22;1032;52.542;13.440;2022-07-30T05:23:40;20.80;71.90
2054;DHT22;1032;52.542;13.440;2022-07-30T05:26:21;20.50;71.60
2054;DHT22;1032;52.542;13.440;2022-07-30T05:28:51;20.70;71.70
2054;DHT22;1032;52.542;13.440;2022-07-30T05:31:23;20.30;71.20
2054;DHT22;1032;52.542;13.440;2022-07-30T05:33:55;20.80;70.90
2054;DHT22;1032;52.542;13.440;2022-07-30T05:36:24;20.70;70.70
2054;DHT22;1032;52.542;13.440;2022-07-30T05:38:52;21.30;72.10
2054;DHT22;1032;52.542;13.440;2022-07-30T05:41:30;20.80;71.40
2054;DHT22;1032;52.542;13.440;2022-07-30T05:44:20;20.50;70.90
2054;DHT22;1032;52.542;13.440;2022-07-30T05:46:47;21.10;70.90
2054;DHT22;1032;52.542;13.440;2022-07-30T05:49:14;20.60;71.90
2054;DHT22;1032;52.542;13.440;2022-07-30T05:51:41;21.10;71.00
2054;DHT22;1032;52.542;13.440;2022-07-30T05:54:08;20.70;71.00
2054;DHT22;1032;52.542;13.440;2022-07-30T05:57:01;21.00;71.30
2054;DHT22;1032;52.542;13.440;2022-07-30T05:59:32;21.00;70.50
2054;DHT22;1032;52.542;13.440;2022-07-30T06:02:08;21.10;71.30
2054;DHT22;1032;52.542;13.440;2022-07-30T06:05:02;21.00;71.10
2054;DHT22;1032;52.542;13.440;2022-07-30T06:07:29;21.20;71.30
2054;DHT22;1032;52.542;13.440;2022-07-30T06:09:58;21.70;71.60
2054;DHT22;1032;52.542;13.440;2022-07-30T06:12:26;21.20;70.30
2054;DHT22;1032;52.542;13.440;2022-07-30T06:14:55;21.30;70.30
2054;DHT22;1032;52.542;13.440;2022-07-30T06:17:27;21.70;70.80
2054;DHT22;1032;52.542;13.440;2022-07-30T06:20:03;21.10;70.70
2054;DHT22;1032;52.542;13.440;2022-07-30T06:22:37;21.50;71.20
2054;DHT22;1032;52.542;13.440;2022-07-30T06:25:10;21.50;70.50
2054;DHT22;1032;52.542;13.440;2022-07-30T06:27:37;21.30;70.30
2054;DHT22;1032;52.542;13.440;2022-07-30T06:30:08;21.50;71.20
2054;DHT22;1032;52.542;13.440;2022-07-30T06:32:36;21.50;70.40
2054;DHT22;1032;52.542;13.440;2022-07-30T06:35:05;21.50;70.50
2054;DHT22;1032;52.542;13.440;2022-07-30T06:37:32;21.60;70.60
2054;DHT22;1032;52.542;13.440;2022-07-30T06:39:58;21.60;70.40
2054;DHT22;1032;52.542;13.440;2022-07-30T06:42:44;21.40;71.10
2054;DHT22;1032;52.542;13.440;2022-07-30T06:45:38;21.60;70.30
2054;DHT22;1032;52.542;13.440;2022-07-30T06:48:19;21.40;70.60
2054;DHT22;1032;52.542;13.440;2022-07-30T06:50:46;21.40;70.60
2054;DHT22;1032;52.542;13.440;2022-07-30T06:53:12;21.70;70.70
2054;DHT22;1032;52.542;13.440;2022-07-30T06:55:57;21.80;70.30
2054;DHT22;1032;52.542;13.440;2022-07-30T06:58:27;21.90;71.00
2054;DHT22;1032;52.542;13.440;2022-07-30T07:01:15;21.90;71.10
2054;DHT22;1032;52.542;13.440;2022-07-30T07:03:42;21.40;70.60
2054;DHT22;1032;52.542;13.440;2022-07-30T07:06:08;22.10;71.30
2054;DHT22;1032;52.542;13.440;2022-07-30T07:08:36;22.00;71.00
2054;DHT22;1032;52.542;13.440;2022-07-30T07:11:04;22.10;70.40
2054;DHT22;1032;52.542;13.440;2022-07-30T07:13:40;22.20;71.00
2054;DHT22;1032;52.542;13.440;2022-07-30T07:16:10;22.20;70.60
2054;DHT22;1032;52.542;13.440;2022-07-30T07:18:42;22.50;70.70
2054;DHT22;1032;52.542;13.440;2022-07-30T07:21:09;22.50;70.20
2054;DHT22;1032;52.542;13.440;2022-07-30T07:23:36;22.60;70.10
2054;DHT22;1032;52.542;13.440;2022-07-30T07:26:03;22.40;69.60
2054;DHT22;1032;52.542;13.440;2022-07-30T07:28:29;22.70;69.10
2054;DHT22;1032;52.542;13.440;2022-07-30T07:30:57;20.00;66.40
2054;DHT22;1032;52.542;13.440;2022-07-30T07:33:24;22.70;68.60
2054;DHT22;1032;52.542;13.440;2022-07-30T07:35:52;22.60;69.20
2054;DHT22;1032;52.542;13.440;2022-07-30T07:38:25;22.80;68.40
2054;DHT22;1032;52.542;13.440;2022-07-30T07:40:53;23.00;68.40
2054;DHT22;1032;52.542;13.440;2022-07-30T07:43:20;23.00;68.10
2054;DHT22;1032;52.542;13.440;2022-07-30T07:45:47;22.70;68.20
2054;DHT22;1032;52.542;13.440;2022-07-30T07:48:13;23.10;68.60
2054;DHT22;1032;52.542;13.440;2022-07-30T07:50:49;23.30;68.50
2054;DHT22;1032;52.542;13.440;2022-07-30T07:53:25;23.40;68.00
2054;DHT22;1032;52.542;13.440;2022-07-30T07:55:51;23.00;67.00
2054;DHT22;1032;52.542;13.440;2022-07-30T07:58:20;23.60;66.50
2054;DHT22;1032;52.542;13.440;2022-07-30T08:00:46;23.60;66.20
2054;DHT22;1032;52.542;13.440;2022-07-30T08:03:13;23.70;65.90
2054;DHT22;1032;52.542;13.440;2022-07-30T08:05:40;23.80;65.70
2054;DHT22;1032;52.542;13.440;2022-07-30T08:08:19;23.90;65.60
2054;DHT22;1032;52.542;13.440;2022-07-30T08:11:06;23.90;65.50
2054;DHT22;1032;52.542;13.440;2022-07-30T08:13:56;24.00;65.20
2054;DHT22;1032;52.542;13.440;2022-07-30T08:16:41;24.10;66.30
2054;DHT22;1032;52.542;13.440;2022-07-30T08:19:33;24.00;66.10
2054;DHT22;1032;52.542;13.440;2022-07-30T08:22:10;23.70;66.00
2054;DHT22;1032;52.542;13.440;2022-07-30T08:24:38;23.90;66.10
2054;DHT22;1032;52.542;13.440;2022-07-30T08:27:06;23.90;66.00
2054;DHT22;1032;52.542;13.440;2022-07-30T08:29:33;23.80;65.50
2054;DHT22;1032;52.542;13.440;2022-07-30T08:32:00;24.10;65.60
2054;DHT22;1032;52.542;13.440;2022-07-30T08:34:27;24.20;65.70
2054;DHT22;1032;52.542;13.440;2022-07-30T08:36:56;23.90;65.10
2054;DHT22;1032;52.542;13.440;2022-07-30T08:39:22;24.10;65.10
2054;DHT22;1032;52.542;13.440;2022-07-30T08:41:49;24.10;65.00
2054;DHT22;1032;52.542;13.440;2022-07-30T08:44:17;24.50;64.80
2054;DHT22;1032;52.542;13.440;2022-07-30T08:46:50;24.40;64.20
2054;DHT22;1032;52.542;13.440;2022-07-30T08:49:36;24.80;64.70
2054;DHT22;1032;52.542;13.440;2022-07-30T08:52:04;24.90;64.40
2054;DHT22;1032;52.542;13.440;2022-07-30T08:54:39;24.90;64.10
2054;DHT22;1032;52.542;13.440;2022-07-30T08:57:06;25.00;63.80
2054;DHT22;1032;52.542;13.440;2022-07-30T08:59:36;24.60;62.70
2054;DHT22;1032;52.542;13.440;2022-07-30T09:02:04;25.20;63.20
2054;DHT22;1032;52.542;13.440;2022-07-30T09:04:34;25.20;63.00
2054;DHT22;1032;52.542;13.440;2022-07-30T09:07:01;25.20;63.00
2054;DHT22;1032;52.542;13.440;2022-07-30T09:09:28;25.20;63.00
2054;DHT22;1032;52.542;13.440;2022-07-30T09:11:55;25.20;62.90
2054;DHT22;1032;52.542;13.440;2022-07-30T09:14:22;25.10;62.50
2054;DHT22;1032;52.542;13.440;2022-07-30T09:16:55;25.40;62.50
2054;DHT22;1032;52.542;13.440;2022-07-30T09:19:22;25.10;62.00
2054;DHT22;1032;52.542;13.440;2022-07-30T09:21:56;25.40;62.10
2054;DHT22;1032;52.542;13.440;2022-07-30T09:24:41;25.50;61.90
2054;DHT22;1032;52.542;13.440;2022-07-30T09:27:43;25.60;61.70
2054;DHT22;1032;52.542;13.440;2022-07-30T09:30:42;25.50;61.90
2054;DHT22;1032;52.542;13.440;2022-07-30T09:33:37;25.10;61.50
2054;DHT22;1032;52.542;13.440;2022-07-30T09:36:23;25.40;61.80
2054;DHT22;1032;52.542;13.440;2022-07-30T09:39:27;25.40;62.00
2054;DHT22;1032;52.542;13.440;2022-07-30T09:42:17;25.50;61.90
2054;DHT22;1032;52.542;13.440;2022-07-30T09:44:45;25.30;61.30
2054;DHT22;1032;52.542;13.440;2022-07-30T09:47:29;25.50;61.60
2054;DHT22;1032;52.542;13.440;2022-07-30T09:50:03;25.50;61.60
2054;DHT22;1032;52.542;13.440;2022-07-30T09:52:31;25.50;62.10
2054;DHT22;1032;52.542;13.440;2022-07-30T09:54:58;25.30;62.00
2054;DHT22;1032;52.542;13.440;2022-07-30T09:57:27;25.60;62.40
2054;DHT22;1032;52.542;13.440;2022-07-30T10:00:15;25.10;61.80
2054;DHT22;1032;52.542;13.440;2022-07-30T10:02:42;25.20;63.00
2054;DHT22;1032;52.542;13.440;2022-07-30T10:05:28;25.20;62.10
2054;DHT22;1032;52.542;13.440;2022-07-30T10:07:57;25.30;62.00
2054;DHT22;1032;52.542;13.440;2022-07-30T10:10:27;25.60;62.20
2054;DHT22;1032;52.542;13.440;2022-07-30T10:12:57;25.60;62.20
2054;DHT22;1032;52.542;13.440;2022-07-30T10:15:27;25.60;61.90
2054;DHT22;1032;52.542;13.440;2022-07-30T10:17:55;25.60;61.70
2054;DHT22;1032;52.542;13.440;2022-07-30T10:20:43;25.20;61.20
2054;DHT22;1032;52.542;13.440;2022-07-30T10:23:29;25.50;60.80
2054;DHT22;1032;52.542;13.440;2022-07-30T10:26:16;25.60;61.60
2054;DHT22;1032;52.542;13.440;2022-07-30T10:29:04;25.60;61.50
2054;DHT22;1032;52.542;13.440;2022-07-30T10:31:30;25.40;61.60
2054;DHT22;1032;52.542;13.440;2022-07-30T10:33:57;25.90;60.40
2054;DHT22;1032;52.542;13.440;2022-07-30T10:36:26;25.70;60.90
2054;DHT22;1032;52.542;13.440;2022-07-30T10:38:54;25.60;59.90
2054;DHT22;1032;52.542;13.440;2022-07-30T10:41:32;25.60;59.80
2054;DHT22;1032;52.542;13.440;2022-07-30T10:44:12;26.10;58.90
2054;DHT22;1032;52.542;13.440;2022-07-30T10:46:49;26.10;59.50
2054;DHT22;1032;52.542;13.440;2022-07-30T10:49:20;26.20;59.00
2054;DHT22;1032;52.542;13.440;2022-07-30T10:51:49;26.30;59.00
2054;DHT22;1032;52.542;13.440;2022-07-30T10:54:38;26.50;58.80
2054;DHT22;1032;52.542;13.440;2022-07-30T10:57:07;26.10;58.50
2054;DHT22;1032;52.542;13.440;2022-07-30T11:00:10;26.50;58.50
2054;DHT22;1032;52.542;13.440;2022-07-30T11:02:37;26.60;57.90
2054;DHT22;1032;52.542;13.440;2022-07-30T11:05:23;26.60;58.00
2054;DHT22;1032;52.542;13.440;2022-07-30T11:07:53;26.70;57.70
2054;DHT22;1032;52.542;13.440;2022-07-30T11:10:34;26.30;57.60
2054;DHT22;1032;52.542;13.440;2022-07-30T11:13:01;26.50;57.30
2054;DHT22;1032;52.542;13.440;2022-07-30T11:15:53;26.80;57.20
2054;DHT22;1032;52.542;13.440;2022-07-30T11:18:21;27.00;56.80
2054;DHT22;1032;52.542;13.440;2022-07-30T11:21:14;26.80;56.80
2054;DHT22;1032;52.542;13.440;2022-07-30T11:23:43;27.10;56.70
2054;DHT22;1032;52.542;13.440;2022-07-30T11:26:49;27.10;56.60
2054;DHT22;1032;52.542;13.440;2022-07-30T11:29:36;27.10;56.40
2054;DHT22;1032;52.542;13.440;2022-07-30T11:32:27;26.90;55.50
2054;DHT22;1032;52.542;13.440;2022-07-30T11:35:15;27.30;55.00
2054;DHT22;1032;52.542;13.440;2022-07-30T11:38:05;27.30;54.80
2054;DHT22;1032;52.542;13.440;2022-07-30T11:40:35;27.20;54.50
2054;DHT22;1032;52.542;13.440;2022-07-30T11:43:20;27.20;55.00
2054;DHT22;1032;52.542;13.440;2022-07-30T11:45:47;27.00;55.10
2054;DHT22;1032;52.542;13.440;2022-07-30T11:48:16;27.10;54.80
2054;DHT22;1032;52.542;13.440;2022-07-30T11:50:44;27.20;54.20
2054;DHT22;1032;52.542;13.440;2022-07-30T11:53:15;26.90;54.50
2054;DHT22;1032;52.542;13.440;2022-07-30T11:55:45;27.10;54.40
2054;DHT22;1032;52.542;13.440;2022-07-30T11:58:23;27.40;54.20
2054;DHT22;1032;52.542;13.440;2022-07-30T12:00:51;27.20;53.60
2054;DHT22;1032;52.542;13.440;2022-07-30T12:03:19;27.40;53.80
2054;DHT22;1032;52.542;13.440;2022-07-30T12:05:47;27.50;53.80
2054;DHT22;1032;52.542;13.440;2022-07-30T12:08:14;27.50;53.90
2054;DHT22;1032;52.542;13.440;2022-07-30T12:10:43;27.50;53.90
2054;DHT22;1032;52.542;13.440;2022-07-30T12:13:19;27.30;53.90
2054;DHT22;1032;52.542;13.440;2022-07-30T12:15:47;27.40;54.00
2054;DHT22;1032;52.542;13.440;2022-07-30T12:18:22;27.40;54.10
2054;DHT22;1032;52.542;13.440;2022-07-30T12:20:54;27.40;53.00
2054;DHT22;1032;52.542;13.440;2022-07-30T12:23:20;27.40;53.00
2054;DHT22;1032;52.542;13.440;2022-07-30T12:25:48;27.40;53.00
2054;DHT22;1032;52.542;13.440;2022-07-30T12:28:19;27.40;52.70
2054;DHT22;1032;52.542;13.440;2022-07-30T12:30:46;27.20;52.50
2054;DHT22;1032;52.542;13.440;2022-07-30T12:33:13;27.20;52.70
2054;DHT22;1032;52.542;13.440;2022-07-30T12:35:47;27.40;52.70
2054;DHT22;1032;52.542;13.440;2022-07-30T12:38:14;27.40;51.00
2054;DHT22;1032;52.542;13.440;2022-07-30T12:40:56;27.40;50.80
2054;DHT22;1032;52.542;13.440;2022-07-30T12:43:44;27.50;51.20
2054;DHT22;1032;52.542;13.440;2022-07-30T12:46:12;27.20;51.00
2054;DHT22;1032;52.542;13.440;2022-07-30T12:48:51;27.40;51.40
2054;DHT22;1032;52.542;13.440;2022-07-30T12:51:19;27.70;52.30
2054;DHT22;1032;52.542;13.440;2022-07-30T12:53:46;27.70;52.40
2054;DHT22;1032;52.542;13.440;2022-07-30T12:56:16;27.30;52.70
2054;DHT22;1032;52.542;13.440;2022-07-30T12:58:43;27.70;52.90
2054;DHT22;1032;52.542;13.440;2022-07-30T13:01:10;27.80;52.80
2054;DHT22;1032;52.542;13.440;2022-07-30T13:03:38;27.60;52.60
2054;DHT22;1032;52.542;13.440;2022-07-30T13:06:14;28.00;52.70
2054;DHT22;1032;52.542;13.440;2022-07-30T13:08:45;28.00;52.80
2054;DHT22;1032;52.542;13.440;2022-07-30T13:11:14;28.00;52.60
2054;DHT22;1032;52.542;13.440;2022-07-30T13:13:41;28.10;52.40
2054;DHT22;1032;52.542;13.440;2022-07-30T13:16:08;28.20;52.20
2054;DHT22;1032;52.542;13.440;2022-07-30T13:18:36;28.00;52.20
2054;DHT22;1032;52.542;13.440;2022-07-30T13:21:03;27.30;51.70
2054;DHT22;1032;52.542;13.440;2022-07-30T13:23:32;27.80;52.20
2054;DHT22;1032;52.542;13.440;2022-07-30T13:25:59;27.90;52.50
2054;DHT22;1032;52.542;13.440;2022-07-30T13:28:27;27.80;52.50
2054;DHT22;1032;52.542;13.440;2022-07-30T13:30:55;27.70;52.70
2054;DHT22;1032;52.542;13.440;2022-07-30T13:33:22;27.80;52.60
2054;DHT22;1032;52.542;13.440;2022-07-30T13:35:48;27.80;52.40
2054;DHT22;1032;52.542;13.440;2022-07-30T13:38:15;27.90;52.20
2054;DHT22;1032;52.542;13.440;2022-07-30T13:40:42;27.90;52.00
2054;DHT22;1032;52.542;13.440;2022-07-30T13:43:08;27.80;51.30
2054;DHT22;1032;52.542;13.440;2022-07-30T13:45:36;27.70;50.70
2054;DHT22;1032;52.542;13.440;2022-07-30T13:48:03;27.50;50.60
2054;DHT22;1032;52.542;13.440;2022-07-30T13:50:30;27.90;51.10
2054;DHT22;1032;52.542;13.440;2022-07-30T13:52:57;27.80;50.70
2054;DHT22;1032;52.542;13.440;2022-07-30T13:55:24;27.80;50.90
2054;DHT22;1032;52.542;13.440;2022-07-30T13:57:50;27.60;51.00
2054;DHT22;1032;52.542;13.440;2022-07-30T14:00:17;27.70;51.20
2054;DHT22;1032;52.542;13.440;2022-07-30T14:02:45;27.70;51.30
2054;DHT22;1032;52.542;13.440;2022-07-30T14:05:12;28.00;51.20
2054;DHT22;1032;52.542;13.440;2022-07-30T14:07:39;28.00;51.00
2054;DHT22;1032;52.542;13.440;2022-07-30T14:10:07;27.70;50.80
2054;DHT22;1032;52.542;13.440;2022-07-30T14:12:34;28.10;50.60
2054;DHT22;1032;52.542;13.440;2022-07-30T14:15:02;28.10;50.40
2054;DHT22;1032;52.542;13.440;2022-07-30T14:17:29;28.20;50.20
2054;DHT22;1032;52.542;13.440;2022-07-30T14:19:57;27.90;50.40
2054;DHT22;1032;52.542;13.440;2022-07-30T14:22:24;28.00;50.70
2054;DHT22;1032;52.542;13.440;2022-07-30T14:24:50;27.90;50.10
2054;DHT22;1032;52.542;13.440;2022-07-30T14:27:17;27.80;50.10
2054;DHT22;1032;52.542;13.440;2022-07-30T14:29:45;27.20;50.00
2054;DHT22;1032;52.542;13.440;2022-07-30T14:32:11;27.60;50.00
2054;DHT22;1032;52.542;13.440;2022-07-30T14:34:38;27.50;49.80
2054;DHT22;1032;52.542;13.440;2022-07-30T14:37:06;27.70;49.90
2054;DHT22;1032;52.542;13.440;2022-07-30T14:39:32;27.60;50.30
2054;DHT22;1032;52.542;13.440;2022-07-30T14:41:59;27.60;50.90
2054;DHT22;1032;52.542;13.440;2022-07-30T14:44:26;27.50;51.00
2054;DHT22;1032;52.542;13.440;2022-07-30T14:46:53;27.20;50.90
2054;DHT22;1032;52.542;13.440;2022-07-30T14:49:19;27.40;50.80
2054;DHT22;1032;52.542;13.440;2022-07-30T14:51:46;27.00;50.40
2054;DHT22;1032;52.542;13.440;2022-07-30T14:54:14;27.40;50.60
2054;DHT22;1032;52.542;13.440;2022-07-30T14:56:41;26.10;50.20
2054;DHT22;1032;52.542;13.440;2022-07-30T14:59:07;27.30;51.30
2054;DHT22;1032;52.542;13.440;2022-07-30T15:01:34;27.00;51.40
2054;DHT22;1032;52.542;13.440;2022-07-30T15:04:01;27.30;50.10
2054;DHT22;1032;52.542;13.440;2022-07-30T15:06:27;27.30;50.70
2054;DHT22;1032;52.542;13.440;2022-07-30T15:08:54;26.90;50.00
2054;DHT22;1032;52.542;13.440;2022-07-30T15:11:22;27.10;50.00
2054;DHT22;1032;52.542;13.440;2022-07-30T15:13:49;26.90;49.80
2054;DHT22;1032;52.542;13.440;2022-07-30T15:16:15;27.10;49.70
2054;DHT22;1032;52.542;13.440;2022-07-30T15:18:42;27.00;50.40
2054;DHT22;1032;52.542;13.440;2022-07-30T15:21:09;27.00;50.50
2054;DHT22;1032;52.542;13.440;2022-07-30T15:23:36;27.10;50.10
2054;DHT22;1032;52.542;13.440;2022-07-30T15:26:03;26.60;50.50
2054;DHT22;1032;52.542;13.440;2022-07-30T15:28:31;26.80;50.50
2054;DHT22;1032;52.542;13.440;2022-07-30T15:30:58;26.80;50.50
2054;DHT22;1032;52.542;13.440;2022-07-30T15:33:24;26.80;50.50
2054;DHT22;1032;52.542;13.440;2022-07-30T15:35:51;26.80;50.80
2054;DHT22;1032;52.542;13.440;2022-07-30T15:38:18;26.60;50.60
2054;DHT22;1032;52.542;13.440;2022-07-30T15:40:44;26.60;50.80
2054;DHT22;1032;52.542;13.440;2022-07-30T15:43:11;26.60;50.40
2054;DHT22;1032;52.542;13.440;2022-07-30T15:45:39;26.20;50.30
2054;DHT22;1032;52.542;13.440;2022-07-30T15:48:06;24.80;49.50
2054;DHT22;1032;52.542;13.440;2022-07-30T15:50:32;26.60;50.60
2054;DHT22;1032;52.542;13.440;2022-07-30T15:53:00;26.30;50.00
2054;DHT22;1032;52.542;13.440;2022-07-30T15:55:27;26.50;50.10
2054;DHT22;1032;52.542;13.440;2022-07-30T15:57:54;26.30;50.00
2054;DHT22;1032;52.542;13.440;2022-07-30T16:00:22;26.40;50.70
2054;DHT22;1032;52.542;13.440;2022-07-30T16:02:50;26.30;50.50
2054;DHT22;1032;52.542;13.440;2022-07-30T16:05:16;26.30;50.70
2054;DHT22;1032;52.542;13.440;2022-07-30T16:07:43;26.30;50.70
2054;DHT22;1032;52.542;13.440;2022-07-30T16:10:10;26.00;50.50
2054;DHT22;1032;52.542;13.440;2022-07-30T16:12:36;26.40;50.70